ENVA/TRD METAR and TAF weather

Enter ICAO airport designator
Station Type Date Time Source
ENVA METAR 2022/12/10 01:50 UTC NOAA

ENVA 100150Z AUTO 09006KT 9999 NCD M15/M16 Q1016 RMK WIND 670FT 13005KT


Station Type Date Time Source
ENVA Decoded METAR 2022/12/10 01:50 UTC NOAA

Trondheim / Vaernes, Norway (ENVA) 63-28N 010-56E 17M
Dec 09, 2022 - 08:50 PM EST / 2022.12.10 0150 UTC
Wind: from the E (090 degrees) at 7 MPH (6 KT):0
Visibility: greater than 7 mile(s):0
Temperature: 5 F (-15 C)
Windchill: -7 F (-22 C):2
Dew Point: 3 F (-16 C)
Relative Humidity: 92%
Pressure (altimeter): 30.00 in. Hg (1016 hPa)
ob: ENVA 100150Z AUTO 09006KT 9999 NCD M15/M16 Q1016 RMK WIND 670FT 13005KT
cycle: 2

Station Type Date Time Source
ENVA TAF 2022/12/09 18:58 UTC NOAA

TAF ENVA 091700Z 0918/1018 11007KT CAVOK

Example: see airport list